Weather reports worldwide

Advertisment
Trollenhagen, Germany (10281): temperature & dewpoint: 12.01.2018 07:00:00 - 18.01.2018 07:00:00 (CET)Trollenhagen, Germany (10281): temperature 5cm & temperature -5cm: 12.01.2018 07:00:00 - 18.01.2018 07:00:00 (CET)Trollenhagen, Germany (10281): temperature -20cm & temperature -100cm: 12.01.2018 07:00:00 - 18.01.2018 07:00:00 (CET)Trollenhagen, Germany (10281): wind speed & gusts: 12.01.2018 07:00:00 - 18.01.2018 07:00:00 (CET)Trollenhagen, Germany (10281): wind direction: 12.01.2018 07:00:00 - 18.01.2018 07:00:00 (CET)Trollenhagen, Germany (10281): reduced air pressure: 12.01.2018 07:00:00 - 18.01.2018 07:00:00 (CET)Trollenhagen, Germany (10281): sunshine duration: 12.01.2018 07:00:00 - 18.01.2018 07:00:00 (CET)Trollenhagen, Germany (10281): precipitation: 12.01.2018 07:00:00 - 18.01.2018 07:00:00 (CET)
Date & Time tt [°C] td [°C] tt 5cm [°C] tt -5cm [°C] tt -20cm [°C] tt -100cm [°C] ff [km/h] ff [kn] fx [km/h] fx [kn] dd ppp [hPa] sd [min] rr [mm]
18.01.2018 07:00:00 - - - - - - - - - - - - - -
18.01.2018 06:00:00 2,2 0,2 1,6 -0,1 0,5 4,0 16 9 38 20 SW 998,3 0 0,0
18.01.2018 05:00:00 2,2 0,2 1,5 -0,1 0,5 4,0 22 12 34 18 SW 999,0 0 0,0
18.01.2018 04:00:00 1,8 0,3 1,2 -0,1 0,5 4,0 20 11 31 17 SW 999,4 0 0,0
18.01.2018 03:00:00 1,7 0,2 1,0 -0,1 0,5 4,0 21 11 32 17 WSW 999,8 0 0,0
18.01.2018 02:00:00 1,2 0,4 0,7 -0,1 0,5 4,0 19 10 29 16 WSW 999,8 0 0,1
18.01.2018 01:00:00 1,3 0,2 0,7 -0,1 0,5 4,1 17 9 32 18 SW 999,5 0 0,0
18.01.2018 00:00:00 1,3 0,0 0,6 -0,1 0,5 4,1 16 8 27 14 WSW 999,3 0 0,0
17.01.2018 23:00:00 1,2 0,3 0,7 -0,1 0,5 4,1 16 9 27 15 WSW 998,9 0 0,0
17.01.2018 22:00:00 1,0 0,4 0,4 -0,1 0,5 4,1 16 9 35 19 WSW 998,3 0 0,0
17.01.2018 21:00:00 1,6 -0,3 1,1 -0,1 0,5 4,1 18 10 30 16 WSW 997,7 0 0,0
17.01.2018 20:00:00 1,8 -0,2 1,2 -0,1 0,5 4,1 21 11 33 18 WSW 996,8 0 0,0
17.01.2018 19:00:00 1,8 -0,5 1,0 -0,1 0,5 4,1 22 12 32 17 WSW 996,2 0 0,0
17.01.2018 18:00:00 1,6 -0,1 0,8 -0,1 0,5 4,1 19 11 31 17 WSW 995,6 0 0,0
17.01.2018 17:00:00 1,6 0,1 0,7 -0,1 0,5 4,1 18 10 31 17 WSW 994,8 0 0,0
17.01.2018 16:00:00 1,4 0,6 0,9 -0,1 0,5 4,1 18 10 29 16 WSW 994,1 0 0,0
17.01.2018 15:00:00 1,5 0,8 1,0 -0,1 0,5 4,1 18 10 27 15 WSW 993,2 0 0,1
17.01.2018 14:00:00 1,5 0,3 1,2 -0,1 0,5 4,1 21 11 34 19 WSW 992,4 0 0,0
17.01.2018 13:00:00 2,1 -0,4 2,0 -0,1 0,5 4,1 24 13 35 19 WSW 991,8 0 0,0
17.01.2018 12:00:00 2,0 -0,3 1,9 -0,1 0,5 4,1 19 11 28 15 WSW 991,3 4 0,0
17.01.2018 11:00:00 1,7 -0,5 1,2 -0,1 0,5 4,1 24 13 36 19 WSW 991,1 0 0,0
17.01.2018 10:00:00 1,6 0,1 1,2 -0,1 0,5 4,1 17 9 27 15 SW 990,4 0 0,0
17.01.2018 09:00:00 1,4 -0,1 0,9 -0,1 0,5 4,1 17 9 28 15 SW 989,9 0 0,0
17.01.2018 08:00:00 1,4 -0,3 0,8 -0,1 0,5 4,1 15 8 24 13 SW 989,4 0 0,0
17.01.2018 07:00:00 1,3 -0,3 0,7 -0,1 0,5 4,1 15 8 30 16 WSW 989,0 0 0,0
17.01.2018 06:00:00 1,3 -0,2 0,7 -0,1 0,5 4,1 12 7 22 12 WSW 989,1 0 0,0
17.01.2018 05:00:00 1,3 -0,1 0,7 -0,1 0,5 4,1 13 7 25 13 WSW 988,8 0 0,0
17.01.2018 04:00:00 1,3 0,2 0,5 -0,1 0,5 4,1 15 8 22 12 SW 988,9 0 0,0
17.01.2018 03:00:00 0,8 0,3 0,2 -0,1 0,5 4,1 14 7 24 13 SW 989,2 0 0,1
17.01.2018 02:00:00 1,6 0,0 0,7 -0,1 0,5 4,1 19 11 29 16 WSW 989,1 0 0,0
17.01.2018 01:00:00 1,7 0,0 0,8 -0,1 0,5 4,1 19 10 29 16 WSW 989,2 0 0,0
17.01.2018 00:00:00 1,7 0,2 0,8 -0,1 0,5 4,1 18 10 34 18 W 988,9 0 0,0
16.01.2018 23:00:00 1,8 0,4 0,9 -0,1 0,5 4,1 20 11 34 18 WSW 988,5 0 0,0
16.01.2018 22:00:00 1,6 0,6 0,7 -0,1 0,5 4,1 22 12 30 16 WSW 988,6 0 0,0
16.01.2018 21:00:00 1,9 0,9 1,0 -0,1 0,5 4,1 21 11 33 18 WSW 988,2 0 0,0
16.01.2018 20:00:00 1,9 1,2 1,2 -0,1 0,5 4,2 21 11 39 21 W 988,0 0 0,3
16.01.2018 19:00:00 2,4 2,0 1,7 -0,1 0,5 4,2 15 8 21 12 SW 987,7 0 0,1
16.01.2018 18:00:00 2,6 2,0 1,7 -0,1 0,5 4,2 16 9 22 12 SW 987,4 0 0,1
16.01.2018 17:00:00 2,9 1,7 2,2 -0,1 0,5 4,2 15 8 24 13 SW 987,5 0 0,0
16.01.2018 16:00:00 3,1 1,8 2,4 -0,1 0,5 4,2 14 8 30 16 SW 987,4 0 0,0
16.01.2018 15:00:00 3,3 1,7 2,6 -0,1 0,5 4,2 21 11 40 22 SW 987,4 12 0,0
16.01.2018 14:00:00 3,7 2,1 3,0 -0,1 0,5 4,2 16 9 27 15 SW 987,2 0 0,0
16.01.2018 13:00:00 3,5 2,5 3,0 -0,2 0,5 4,2 16 9 30 16 SSW 987,8 0 0,1
16.01.2018 12:00:00 3,2 2,4 2,2 -0,2 0,5 4,2 14 8 27 15 S 988,3 0 0,0
16.01.2018 11:00:00 2,7 2,2 2,0 -0,2 0,5 4,2 13 7 23 12 S 989,2 0 0,0
16.01.2018 10:00:00 2,3 1,8 1,6 -0,2 0,5 4,2 12 7 27 14 S 989,5 1 0,0
16.01.2018 09:00:00 1,9 1,4 1,2 -0,2 0,5 4,2 17 9 27 15 S 989,3 0 0,0
16.01.2018 08:00:00 1,6 1,0 0,7 -0,2 0,5 4,2 14 8 29 16 S 989,3 0 0,0
16.01.2018 07:00:00 1,3 0,8 0,5 -0,2 0,5 4,2 17 9 38 20 S 989,1 0 0,1
16.01.2018 06:00:00 0,7 0,4 0,0 -0,2 0,5 4,2 21 12 37 20 S 989,6 0 0,3
16.01.2018 05:00:00 0,3 0,2 0,0 -0,2 0,5 4,2 23 12 42 23 S 990,4 0 1,2
16.01.2018 04:00:00 0,7 -0,1 0,0 -0,2 0,5 4,2 24 13 46 25 S 991,3 0 0,1
16.01.2018 03:00:00 0,5 -0,3 0,0 -0,3 0,5 4,2 28 15 50 27 SSE 992,6 0 0,0
16.01.2018 02:00:00 0,4 -0,6 0,0 -0,3 0,5 4,2 29 16 51 28 SSE 994,0 0 0,1
16.01.2018 01:00:00 1,1 -2,0 0,7 -0,3 0,5 4,2 25 14 55 30 SSE 995,5 0 0,0
16.01.2018 00:00:00 1,8 -3,0 1,2 -0,3 0,5 4,2 27 15 50 27 SSE 997,3 0 0,0
15.01.2018 23:00:00 1,3 -3,1 0,8 -0,4 0,5 4,2 21 11 44 24 SSE 998,8 0 0,0
15.01.2018 22:00:00 1,5 -3,0 0,8 -0,4 0,5 4,2 17 9 42 23 S 1000,4 0 0,0
15.01.2018 21:00:00 1,4 -3,0 0,5 -0,3 0,5 4,2 24 13 42 23 SSE 1002,0 0 0,0
15.01.2018 20:00:00 1,5 -3,2 1,0 -0,3 0,5 4,3 23 12 43 23 SSE 1004,0 0 0,0
15.01.2018 19:00:00 1,5 -3,1 1,0 -0,3 0,5 4,3 23 12 43 23 SSE 1005,3 0 0,0
15.01.2018 18:00:00 1,4 -3,0 0,8 -0,3 0,5 4,3 27 14 47 25 SSE 1006,8 0 0,0
15.01.2018 17:00:00 1,5 -3,1 1,0 -0,3 0,5 4,3 27 15 44 24 SSE 1007,9 0 0,0
15.01.2018 16:00:00 1,7 -3,2 1,3 -0,3 0,5 4,3 24 13 43 23 SSE 1009,4 0 0,0
15.01.2018 15:00:00 1,5 -3,4 0,7 -0,3 0,5 4,3 24 13 54 29 SSE 1011,1 51 0,0
15.01.2018 14:00:00 1,6 -3,4 1,5 -0,4 0,4 4,3 25 14 41 22 SSE 1012,2 32 0,0
15.01.2018 13:00:00 0,7 -3,9 0,9 -0,5 0,4 4,3 23 13 42 23 SSE 1014,0 60 0,0
15.01.2018 12:00:00 0,0 -4,2 0,7 -0,7 0,4 4,3 18 10 37 20 SSE 1015,7 60 0,0
15.01.2018 11:00:00 -1,0 -4,6 -0,8 -1,1 0,5 4,3 23 12 38 21 SSE 1017,4 60 0,0
15.01.2018 10:00:00 -1,9 -5,0 -2,0 -1,3 0,5 4,3 24 13 39 21 SE 1018,6 29 0,0
15.01.2018 09:00:00 -2,4 -5,0 -2,5 -1,1 0,5 4,3 19 11 31 17 SE 1019,4 0 0,0
15.01.2018 08:00:00 -2,7 -5,1 -2,8 -1,2 0,5 4,3 18 10 29 15 SE 1020,5 0 0,0
15.01.2018 07:00:00 -2,9 -5,2 -3,0 -1,3 0,5 4,3 16 9 31 17 SE 1021,3 0 0,0
15.01.2018 06:00:00 -3,1 -5,5 -3,2 -1,4 0,5 4,3 19 11 37 20 SE 1021,8 0 0,0
15.01.2018 05:00:00 -3,2 -5,6 -3,4 -1,6 0,5 4,3 21 11 35 19 SE 1022,9 0 0,0
15.01.2018 04:00:00 -3,3 -5,8 -3,8 -1,7 0,5 4,3 21 11 36 19 SE 1024,0 0 0,0
15.01.2018 03:00:00 -3,5 -5,9 -4,3 -1,8 0,6 4,3 17 9 32 17 SE 1025,1 0 0,0
15.01.2018 02:00:00 -3,5 -5,9 -4,5 -1,7 0,6 4,3 18 10 30 16 SE 1026,0 0 0,0
15.01.2018 01:00:00 -3,4 -5,8 -4,5 -1,5 0,6 4,3 17 9 31 17 SE 1026,8 0 0,0
15.01.2018 00:00:00 -3,0 -5,7 -4,3 -1,3 0,6 4,3 16 9 29 16 SE 1027,4 0 0,0
14.01.2018 23:00:00 -2,9 -5,6 -4,2 -1,1 0,6 4,3 16 8 30 16 SE 1027,7 0 0,0
14.01.2018 22:00:00 -2,7 -5,7 -4,1 -0,9 0,6 4,3 13 7 23 13 SE 1028,0 0 0,0
14.01.2018 21:00:00 -2,3 -5,6 -3,3 -0,7 0,7 4,3 15 8 29 15 SE 1028,3 0 0,0
14.01.2018 20:00:00 -2,2 -5,7 -2,5 -0,6 0,7 4,3 16 9 29 16 SE 1028,8 0 0,0
14.01.2018 19:00:00 -2,4 -6,3 -3,3 -0,6 0,7 4,4 21 12 37 20 SE 1029,0 0 0,0
14.01.2018 18:00:00 -2,4 -6,3 -2,9 -0,5 0,7 4,4 17 9 32 17 SE 1029,2 0 0,0
14.01.2018 17:00:00 -2,6 -6,6 -2,9 -0,5 0,7 4,4 17 9 32 18 SE 1029,7 0 0,0
14.01.2018 16:00:00 -2,3 -6,6 -2,4 -0,4 0,7 4,4 21 11 35 19 ESE 1030,0 2 0,0
14.01.2018 15:00:00 -2,0 -6,6 -1,9 -0,2 0,7 4,4 22 12 32 18 ESE 1030,0 0 0,0
14.01.2018 14:00:00 -1,9 -6,7 -1,7 -0,2 0,7 4,4 20 11 32 17 SE 1030,2 0 0,0
14.01.2018 13:00:00 -2,0 -6,8 -1,8 -0,2 0,7 4,4 24 13 35 19 SE 1030,9 0 0,0
14.01.2018 12:00:00 -2,2 -6,5 -1,9 -0,3 0,7 4,4 26 14 37 20 ESE 1031,4 4 0,0
14.01.2018 11:00:00 -1,9 -6,0 -1,5 -0,5 0,7 4,4 22 12 35 19 ESE 1031,8 59 0,0
14.01.2018 10:00:00 -2,5 -5,9 -2,4 -0,6 0,7 4,4 19 11 29 16 ESE 1031,6 54 0,0
14.01.2018 09:00:00 -3,0 -5,8 -3,9 -0,7 0,7 4,4 19 11 30 16 ESE 1031,5 0 0,0
14.01.2018 08:00:00 -2,6 -5,8 -3,9 -0,6 0,8 4,4 18 10 27 14 ESE 1031,5 0 0,0
14.01.2018 07:00:00 -2,6 -5,5 -3,8 -0,5 0,8 4,4 16 9 25 13 E 1031,6 0 0,0
14.01.2018 06:00:00 -2,2 -5,6 -3,6 -0,4 0,8 4,4 16 8 31 17 E 1031,5 0 0,0
14.01.2018 05:00:00 -1,1 -5,1 -1,8 -0,2 0,8 4,4 19 10 33 18 ESE 1031,4 0 0,0
14.01.2018 04:00:00 -0,8 -5,3 -1,3 -0,2 0,8 4,4 22 12 35 19 ESE 1031,8 0 0,0
14.01.2018 03:00:00 -0,6 -5,5 -0,9 -0,1 0,8 4,4 27 14 41 22 ESE 1031,8 0 0,0
14.01.2018 02:00:00 -0,6 -5,5 -0,9 -0,1 0,8 4,4 19 10 29 16 ESE 1032,0 0 0,0
14.01.2018 01:00:00 -0,7 -5,4 -1,0 -0,1 0,8 4,4 19 10 39 21 ESE 1032,4 0 0,0
14.01.2018 00:00:00 -0,7 -5,4 -1,0 -0,1 0,8 4,4 22 12 36 20 ESE 1032,8 0 0,0
13.01.2018 23:00:00 -0,6 -5,0 -0,9 -0,1 0,8 4,4 21 11 31 17 ESE 1032,8 0 0,0
13.01.2018 22:00:00 -0,6 -4,8 -0,9 -0,1 0,7 4,4 20 11 36 20 ESE 1032,9 0 0,0
13.01.2018 21:00:00 -0,6 -5,0 -0,9 -0,1 0,7 4,4 19 10 36 19 SE 1033,3 0 0,0
13.01.2018 20:00:00 -0,6 -4,7 -0,9 -0,1 0,7 4,4 21 11 35 19 ESE 1033,3 0 0,0
13.01.2018 19:00:00 -0,5 -5,1 -0,9 -0,1 0,7 4,4 23 12 35 19 ESE 1033,4 0 0,0
13.01.2018 18:00:00 -0,6 -5,3 -0,9 0,0 0,7 4,4 19 10 36 19 ESE 1033,5 0 0,0
13.01.2018 17:00:00 -0,9 -5,4 -1,2 0,0 0,7 4,4 20 11 35 19 ESE 1033,4 0 0,0
13.01.2018 16:00:00 -1,3 -5,5 -1,5 0,0 0,7 4,4 19 11 39 21 ESE 1033,5 0 0,0
13.01.2018 15:00:00 -1,4 -5,1 -1,5 0,0 0,7 4,5 26 14 37 20 ESE 1033,5 0 0,0
13.01.2018 14:00:00 -1,3 -5,2 -1,3 0,0 0,7 4,5 26 14 40 21 ESE 1034,0 0 0,0
13.01.2018 13:00:00 -1,1 -5,2 -1,1 0,0 0,7 4,5 26 14 40 22 ESE 1034,3 24 0,0
13.01.2018 12:00:00 -0,8 -3,7 -0,4 0,0 0,7 4,5 24 13 40 22 ESE 1034,4 3 0,0
13.01.2018 11:00:00 -1,0 -3,7 -0,7 0,0 0,7 4,5 25 14 45 25 ESE 1034,5 1 0,0
13.01.2018 10:00:00 -0,7 -2,9 -0,9 0,0 0,7 4,5 27 15 40 22 ESE 1034,1 0 0,0
13.01.2018 09:00:00 -0,6 -2,5 -0,8 0,0 0,7 4,5 23 12 37 20 ESE 1033,8 0 0,0
13.01.2018 08:00:00 -0,6 -2,2 -0,8 0,0 0,7 4,5 20 11 34 18 ESE 1033,6 0 0,0
13.01.2018 07:00:00 -0,7 -2,2 -0,9 0,0 0,6 4,5 17 9 35 19 ESE 1033,6 0 0,0
13.01.2018 06:00:00 -0,7 -2,1 -1,0 0,0 0,6 4,5 22 12 37 20 ESE 1033,5 0 0,0
13.01.2018 05:00:00 -0,7 -2,0 -1,0 0,0 0,6 4,5 23 12 34 18 ESE 1033,5 0 0,0
13.01.2018 04:00:00 -0,6 -1,8 -0,8 0,0 0,6 4,5 21 11 32 17 ESE 1033,7 0 0,0
13.01.2018 03:00:00 -0,5 -1,6 -0,8 0,0 0,6 4,5 20 11 31 17 ESE 1033,6 0 0,0
13.01.2018 02:00:00 -0,5 -1,3 -0,6 -0,1 0,6 4,5 22 12 29 16 ESE 1033,5 0 0,0
13.01.2018 01:00:00 -0,3 -1,1 -0,5 -0,1 0,6 4,5 17 9 36 19 ESE 1033,2 0 0,0
13.01.2018 00:00:00 -0,2 -1,1 -0,4 -0,1 0,6 4,5 23 13 34 19 ESE 1033,3 0 0,0
12.01.2018 23:00:00 -0,1 -0,8 -0,3 -0,1 0,6 4,5 21 12 31 17 ESE 1033,1 0 0,0
12.01.2018 22:00:00 0,1 -0,6 -0,2 -0,1 0,5 4,5 21 11 32 17 ESE 1033,1 0 0,0
12.01.2018 21:00:00 0,1 -0,5 -0,1 -0,1 0,5 4,5 20 11 37 20 ESE 1032,8 0 0,0
12.01.2018 20:00:00 0,3 -0,5 -0,1 -0,1 0,5 4,6 21 12 29 16 ESE 1032,5 0 0,0
12.01.2018 19:00:00 0,3 -0,4 0,0 -0,1 0,5 4,6 19 11 29 16 E 1032,1 0 0,0
12.01.2018 18:00:00 0,5 -0,3 0,0 -0,1 0,5 4,6 18 10 24 13 E 1031,6 0 0,0
12.01.2018 17:00:00 0,5 -0,1 0,2 0,0 0,5 4,6 16 9 26 14 E 1031,4 0 0,0
12.01.2018 16:00:00 0,6 0,3 0,4 0,1 0,5 4,6 14 8 21 11 E 1031,1 0 0,0
12.01.2018 15:00:00 0,8 0,5 0,5 0,2 0,5 4,6 16 8 20 11 E 1030,8 0 0,0
12.01.2018 14:00:00 0,8 0,4 0,5 0,2 0,5 4,6 16 9 21 11 E 1030,4 0 0,0
12.01.2018 13:00:00 0,8 0,5 0,7 0,3 0,5 4,6 14 7 21 11 E 1030,4 0 0,0
12.01.2018 12:00:00 0,8 0,5 0,7 0,3 0,5 4,6 15 8 22 12 ENE 1030,3 0 0,0
12.01.2018 11:00:00 0,7 0,4 0,6 0,2 0,5 4,6 14 7 22 12 E 1030,1 0 0,0
12.01.2018 10:00:00 0,5 0,4 0,4 0,1 0,5 4,6 14 8 20 11 ENE 1029,6 0 0,0
12.01.2018 09:00:00 0,5 0,2 0,3 0,0 0,5 4,6 16 9 28 15 E 1029,0 0 0,0
12.01.2018 08:00:00 0,4 0,1 0,2 0,0 0,5 4,6 18 10 30 16 E 1028,2 0 0,0
12.01.2018 07:00:00 0,5 0,5 0,4 0,1 0,5 4,6 16 9 26 14 E 1027,6 0 0,0

tt = temperature
td = dewpoint
tt 5cm = temperature 5cm
tt -5cm = temperature -5cm
tt -20cm = temperature -20cm
tt -100cm = temperature -100cm
ff = wind speed
fx = gusts
dd = wind direction
ppp = reduced air pressure
sd = sunshine duration
rr = precipitation

Next stations